Aeroporto :
LOGIN :

Iscrizione | Disclaimer

   EN    FR    IT 

 










Sommario :    VFR   VFR Marginale   IFR   IFR Intensivo   IFR Molto Intensivo
Visibilità : 
Base nubi : 
>= 8 km
>= 3000ft
5 / 8 km
1000 / 3000 ft
1500m / 5 km
500 / 1000 ft
800 / 1500m
200 / 500 ft
< 800m
< 200 ft
Simboli :   Temporali  Nebbia  Neve Forte  Precipitazioni Forti  Vento > 20 kt
SIGMETs :   Varie  Temporali  Ghiacco  Turbolenza  Onda orograficha  Ceneri Vulcaniche







- Altitudine del aeroporto : 121 ft
- Codice IATA : HUY
- Carte del aeroporto


EGNJ - Humberside

ULTIMO METAR :
  • 210650Z 00000KT 7000 NSC 09/07 Q1024

METARs OBSOLETI :
  • 210620Z VRB01KT 4000 1700S BR VCFG NSC 06/05 Q1024
  • 210550Z 22002KT 4000 1300S R20/0900 BCFG BR NSC 04/03 Q1024
  • 210520Z 00000KT 4000 0300S R20/0400 PRFG BR NSC 02/02 Q1024
  • 210450Z 00000KT 4000 0900SE PRFG BR NSC 02/01 Q1024
  • 210420Z AUTO 00000KT 8000 NCD 02/01 Q1025
  • 210350Z AUTO 23002KT 8000 NCD 03/03 Q1025

TAF TAF EGNJ
Valido dal 21 a 06 ore il 21 a 15 ore UTC


210500Z 2106/2115 VRB05KT 7000 FEW040
PROB30
TEMPO 2106/2108 0300 FG VV///
BECMG 2108/2111 CAVOK
ATIS : +44 1652 682 020
Nessun NOTAM noto per questo aeroporto.



MetMap, La meteo Aeronautica in un colpo d'occhio ! - Copyright ORBIFLY Dicembre 2007 - Disclaimer

ORBIFLY MET'MAP TEAM :

Programmazione e sviluppo : Alexandra Zaïnal
Concezione e sviluppo : Baudouin d'Aumeries
Co-Programmazione e sviluppo : Marc-Olivier Méhu
Supporto tecnico e logistico : Manuel Goepfert
Aiuto per la traduzione : Arnaldo La Scala

Contatto : metmap@orbifly.com




FONTI E CREDITI :

   NOAA